Time;durP1;ratioP1;P1;durP2;ratioP2;P2;SDS_P1;SDS_P2;PMS_P1;PMS_P2;Temp;Humidity;BMP_temperature;BMP_pressure;BME280_temperature;BME280_humidity;BME280_pressure;Samples;Min_cycle;Max_cycle;Signal;HPM_P1;HPM_P2
2023/12/26 00:00:14;;;;;;;6.43;6.03;;;10.80;24.20;;;;;;4995427;28;20181;-58
2023/12/26 00:02:40;;;;;;;6.57;6.07;;;10.70;24.50;;;;;;4984283;28;20225;-58
2023/12/26 00:05:06;;;;;;;7.20;6.80;;;10.60;24.70;;;;;;4977896;28;20185;-58
2023/12/26 00:07:31;;;;;;;6.83;6.40;;;10.50;25.20;;;;;;4984886;28;20181;-58
2023/12/26 00:09:57;;;;;;;6.57;6.07;;;10.20;25.80;;;;;;4975363;28;20181;-58
2023/12/26 00:12:25;;;;;;;6.20;5.90;;;10.20;25.90;;;;;;4976360;28;20189;-58
2023/12/26 00:14:51;;;;;;;6.07;5.67;;;10.30;26.10;;;;;;4988691;28;20634;-58
2023/12/26 00:17:17;;;;;;;6.57;6.23;;;10.20;26.30;;;;;;4993323;28;20414;-58
2023/12/26 00:19:43;;;;;;;6.53;6.03;;;10.20;26.40;;;;;;4976117;28;20424;-58
2023/12/26 00:22:09;;;;;;;6.40;6.10;;;10.20;26.50;;;;;;4976290;28;20291;-58
2023/12/26 00:24:34;;;;;;;6.30;5.70;;;10.20;26.60;;;;;;4975869;28;20525;-58
2023/12/26 00:27:00;;;;;;;5.77;5.50;;;10.20;26.60;;;;;;4975866;28;20591;-58
2023/12/26 00:29:26;;;;;;;5.70;5.50;;;10.20;26.60;;;;;;4975798;28;20560;-58
2023/12/26 00:31:51;;;;;;;6.33;6.03;;;10.20;26.70;;;;;;4975622;28;20240;-58
2023/12/26 00:34:17;;;;;;;6.03;5.83;;;10.30;26.70;;;;;;4976233;28;20185;-58
2023/12/26 00:36:42;;;;;;;6.07;5.77;;;10.30;26.30;;;;;;4976168;28;20182;-58
2023/12/26 00:39:08;;;;;;;6.40;5.77;;;10.40;25.90;;;;;;4974920;28;20182;-58
2023/12/26 00:41:34;;;;;;;6.10;5.80;;;10.40;26.20;;;;;;4976189;28;20596;-58
2023/12/26 00:43:59;;;;;;;6.43;5.90;;;10.50;25.80;;;;;;4975949;28;20226;-58
2023/12/26 00:46:25;;;;;;;5.80;5.40;;;10.60;25.80;;;;;;4979342;28;20199;-58
2023/12/26 00:48:51;;;;;;;5.60;5.30;;;10.50;25.70;;;;;;4978807;28;20627;-58
2023/12/26 00:51:16;;;;;;;6.00;5.70;;;10.50;25.90;;;;;;4978636;28;20185;-58
2023/12/26 00:53:42;;;;;;;6.70;6.27;;;10.50;25.80;;;;;;4978840;28;20184;-58
2023/12/26 00:56:08;;;;;;;7.63;7.13;;;10.60;25.80;;;;;;4975611;28;20193;-58
2023/12/26 00:58:35;;;;;;;6.20;5.90;;;10.60;25.80;;;;;;4975458;28;20801;-58
2023/12/26 01:01:01;;;;;;;6.40;6.17;;;10.60;25.60;;;;;;4974963;28;20182;-58
2023/12/26 01:03:26;;;;;;;6.47;6.17;;;10.60;25.60;;;;;;4975591;28;20476;-58
2023/12/26 01:05:52;;;;;;;6.73;6.23;;;10.50;25.90;;;;;;4975929;28;20379;-58
2023/12/26 01:08:18;;;;;;;6.37;6.17;;;10.50;26.00;;;;;;4974957;28;20216;-58
2023/12/26 01:10:44;;;;;;;6.40;6.10;;;10.40;25.90;;;;;;4975398;28;20273;-58
2023/12/26 01:13:09;;;;;;;6.40;6.10;;;10.50;25.90;;;;;;4977065;28;20420;-58
2023/12/26 01:15:35;;;;;;;6.80;6.50;;;10.50;25.90;;;;;;4984629;28;20429;-58
2023/12/26 01:18:01;;;;;;;6.27;6.00;;;10.70;25.60;;;;;;4976024;28;20188;-58
2023/12/26 01:20:27;;;;;;;7.03;6.43;;;10.70;25.30;;;;;;4984843;28;20925;-58
2023/12/26 01:22:52;;;;;;;6.43;6.13;;;10.60;25.60;;;;;;4974675;28;20434;-58
2023/12/26 01:25:18;;;;;;;6.70;6.43;;;10.50;26.00;;;;;;4975245;28;20489;-58
2023/12/26 01:27:44;;;;;;;6.30;5.97;;;10.50;25.70;;;;;;4975322;28;20220;-58
2023/12/26 01:30:10;;;;;;;6.20;5.90;;;10.40;26.00;;;;;;4974163;28;20216;-58
2023/12/26 01:32:35;;;;;;;6.00;5.80;;;10.30;26.50;;;;;;4975186;28;20197;-58
2023/12/26 01:35:01;;;;;;;7.90;7.20;;;10.20;26.50;;;;;;4982281;28;20421;-58
2023/12/26 01:37:27;;;;;;;7.00;6.50;;;10.10;26.90;;;;;;4976539;28;20646;-58
2023/12/26 01:39:52;;;;;;;6.23;5.93;;;10.10;27.00;;;;;;4974825;28;20418;-58
2023/12/26 01:42:18;;;;;;;6.80;6.20;;;10.00;26.80;;;;;;4974662;28;20274;-58
2023/12/26 01:44:44;;;;;;;5.97;5.67;;;10.10;26.70;;;;;;4974601;28;20225;-58
2023/12/26 01:47:11;;;;;;;6.17;5.77;;;10.00;26.60;;;;;;4976062;28;20650;-58
2023/12/26 01:49:37;;;;;;;5.90;5.50;;;9.90;27.70;;;;;;4984076;28;20178;-58
2023/12/26 01:52:06;;;;;;;6.27;5.97;;;10.00;27.00;;;;;;4979478;28;20513;-58
2023/12/26 01:54:35;;;;;;;6.67;6.20;;;10.00;26.70;;;;;;4974820;28;20425;-58
2023/12/26 01:57:02;;;;;;;10.77;10.10;;;10.10;26.60;;;;;;4974367;28;20507;-58
2023/12/26 01:59:28;;;;;;;7.27;6.83;;;10.10;26.50;;;;;;4973710;28;20459;-58
2023/12/26 02:01:54;;;;;;;6.63;6.33;;;10.10;26.60;;;;;;4974685;28;20422;-58
2023/12/26 02:04:20;;;;;;;6.03;5.83;;;10.10;26.50;;;;;;4985194;28;20849;-58
2023/12/26 02:06:48;;;;;;;6.63;6.23;;;10.20;26.00;;;;;;4975678;28;20417;-58
2023/12/26 02:09:14;;;;;;;6.80;6.50;;;10.20;26.20;;;;;;4973966;28;20432;-60
2023/12/26 02:11:40;;;;;;;5.73;5.40;;;10.30;25.80;;;;;;4974320;28;20972;-59
2023/12/26 02:14:06;;;;;;;5.67;5.47;;;10.20;25.90;;;;;;4998138;28;20460;-59
2023/12/26 02:16:35;;;;;;;6.57;6.07;;;10.10;26.30;;;;;;4974244;28;20194;-59
2023/12/26 02:19:01;;;;;;;6.50;6.20;;;10.10;26.30;;;;;;4973854;28;20432;-59
2023/12/26 02:21:26;;;;;;;6.27;6.00;;;10.10;26.20;;;;;;4973701;28;20432;-59
2023/12/26 02:23:56;;;;;;;6.60;6.37;;;10.00;26.20;;;;;;4974470;28;20984;-59
2023/12/26 02:26:28;;;;;;;6.33;6.03;;;10.10;26.10;;;;;;4981961;28;20556;-59
2023/12/26 02:28:55;;;;;;;6.83;6.33;;;10.00;26.30;;;;;;4973319;28;20827;-59
2023/12/26 02:31:21;;;;;;;6.30;6.00;;;10.10;26.00;;;;;;4976429;28;20875;-59
2023/12/26 02:33:47;;;;;;;6.70;6.50;;;10.00;26.00;;;;;;4981296;28;20429;-59
2023/12/26 02:36:14;;;;;;;7.03;6.73;;;10.00;26.40;;;;;;4973393;28;20783;-58
2023/12/26 02:38:40;;;;;;;7.43;7.03;;;10.20;25.90;;;;;;4973652;28;20452;-58
2023/12/26 02:41:05;;;;;;;6.00;5.80;;;10.10;25.80;;;;;;4973765;28;20425;-58
2023/12/26 02:43:33;;;;;;;6.37;6.07;;;10.20;25.80;;;;;;4973327;28;21002;-58
2023/12/26 02:45:58;;;;;;;7.43;7.03;;;10.20;25.60;;;;;;4973958;28;20189;-58
2023/12/26 02:48:24;;;;;;;5.60;5.40;;;10.30;25.60;;;;;;4973754;28;20418;-58
2023/12/26 02:50:50;;;;;;;6.43;6.13;;;10.30;25.20;;;;;;4972819;28;20178;-58
2023/12/26 02:53:16;;;;;;;6.63;6.33;;;10.20;25.10;;;;;;4979029;28;20433;-58
2023/12/26 02:55:42;;;;;;;6.57;6.17;;;10.20;25.30;;;;;;4973779;28;20417;-58
2023/12/26 02:58:08;;;;;;;6.70;6.37;;;10.30;24.90;;;;;;4973212;28;20277;-58
2023/12/26 03:00:34;;;;;;;7.10;6.73;;;10.50;25.00;;;;;;4973431;28;20555;-58
2023/12/26 03:03:31;;;;;;;6.80;6.50;;;10.50;24.60;;;;;;4976588;28;20461;-58
2023/12/26 03:05:57;;;;;;;6.73;6.37;;;10.60;24.10;;;;;;4971026;28;21087;-58
2023/12/26 03:08:23;;;;;;;6.67;6.37;;;10.60;24.10;;;;;;4978615;28;20439;-59
2023/12/26 03:10:49;;;;;;;6.50;6.20;;;10.70;23.70;;;;;;4973437;28;20178;-59
2023/12/26 03:13:15;;;;;;;5.80;5.50;;;10.60;23.60;;;;;;4974804;28;20780;-58
2023/12/26 03:15:40;;;;;;;6.80;6.30;;;10.60;23.60;;;;;;5002523;28;20243;-59
2023/12/26 03:18:06;;;;;;;6.50;6.30;;;10.60;23.60;;;;;;4981353;28;20190;-58
2023/12/26 03:20:32;;;;;;;6.93;6.63;;;10.60;23.60;;;;;;4973673;28;20193;-58
2023/12/26 03:22:57;;;;;;;6.67;6.37;;;10.70;24.20;;;;;;4973063;28;20225;-58
2023/12/26 03:25:23;;;;;;;6.63;6.13;;;10.70;23.40;;;;;;4973085;28;20181;-58
2023/12/26 03:27:49;;;;;;;6.10;5.90;;;10.70;23.40;;;;;;4978061;28;20182;-58
2023/12/26 03:30:15;;;;;;;6.77;6.37;;;10.80;23.10;;;;;;4973255;28;20272;-58
2023/12/26 03:32:40;;;;;;;6.40;6.13;;;10.80;23.20;;;;;;4973241;28;20452;-59
2023/12/26 03:35:06;;;;;;;6.10;5.90;;;10.80;23.00;;;;;;4982563;28;20182;-59
2023/12/26 03:37:32;;;;;;;6.70;6.47;;;10.60;22.70;;;;;;4973467;28;20256;-59
2023/12/26 03:39:58;;;;;;;6.90;6.60;;;10.60;22.80;;;;;;4973112;28;20197;-60
2023/12/26 03:42:23;;;;;;;7.30;7.00;;;10.40;23.50;;;;;;4984307;28;20187;-59
2023/12/26 03:44:49;;;;;;;6.83;6.33;;;10.30;23.40;;;;;;4973173;28;20665;-59
2023/12/26 03:47:14;;;;;;;6.23;6.03;;;10.40;23.30;;;;;;4973525;28;20170;-59
2023/12/26 03:49:40;;;;;;;6.80;6.43;;;10.30;23.40;;;;;;4973007;28;20174;-59
2023/12/26 03:52:06;;;;;;;6.57;6.20;;;10.40;23.10;;;;;;4973123;28;20457;-59
2023/12/26 03:54:31;;;;;;;6.40;6.10;;;10.40;22.80;;;;;;4973437;28;20186;-59
2023/12/26 03:56:57;;;;;;;6.60;6.33;;;10.30;23.10;;;;;;4973455;28;20189;-59
2023/12/26 03:59:22;;;;;;;6.77;6.33;;;10.30;23.20;;;;;;4972476;28;20182;-59
2023/12/26 04:01:48;;;;;;;6.67;6.40;;;10.20;23.30;;;;;;4975743;28;20189;-59
2023/12/26 04:04:13;;;;;;;6.37;5.80;;;10.20;23.30;;;;;;4976572;28;20716;-60
2023/12/26 04:06:39;;;;;;;6.43;6.13;;;10.10;23.30;;;;;;4982055;28;20221;-60
2023/12/26 04:09:05;;;;;;;6.50;6.20;;;10.00;23.50;;;;;;4976336;28;20574;-59
2023/12/26 04:11:32;;;;;;;6.63;6.43;;;10.00;23.20;;;;;;4976747;28;20228;-59
2023/12/26 04:13:57;;;;;;;7.13;6.83;;;10.10;23.30;;;;;;4976155;28;20189;-59
2023/12/26 04:16:23;;;;;;;7.20;6.80;;;10.10;23.80;;;;;;4976481;28;20436;-59
2023/12/26 04:18:49;;;;;;;6.27;5.97;;;10.00;23.50;;;;;;4976189;28;20550;-59
2023/12/26 04:21:14;;;;;;;6.50;6.10;;;10.00;23.20;;;;;;4977022;28;20237;-58
2023/12/26 04:23:40;;;;;;;6.67;6.23;;;10.10;23.30;;;;;;4983677;28;20343;-58
2023/12/26 04:26:06;;;;;;;6.10;5.80;;;10.10;23.30;;;;;;4986642;28;20182;-58
2023/12/26 04:28:32;;;;;;;6.90;6.50;;;10.10;23.30;;;;;;4996742;28;20220;-58
2023/12/26 04:30:57;;;;;;;6.23;5.93;;;10.20;23.30;;;;;;4976684;28;20472;-58
2023/12/26 04:33:25;;;;;;;6.70;6.20;;;10.20;23.30;;;;;;4984750;28;20266;-58
2023/12/26 04:35:50;;;;;;;6.73;6.17;;;10.30;23.40;;;;;;4976115;28;20568;-59
2023/12/26 04:38:16;;;;;;;6.40;6.00;;;10.30;23.00;;;;;;4976190;28;20417;-59
2023/12/26 04:40:41;;;;;;;5.87;5.57;;;10.40;22.80;;;;;;4975555;28;20183;-59
2023/12/26 04:43:08;;;;;;;6.10;5.70;;;10.50;22.70;;;;;;4959469;28;20280;-59
2023/12/26 04:45:36;;;;;;;6.23;5.93;;;10.50;22.60;;;;;;4976020;28;20260;-59
2023/12/26 04:48:07;;;;;;;6.90;6.40;;;10.70;22.30;;;;;;4976200;28;21052;-59
2023/12/26 04:50:33;;;;;;;6.80;6.33;;;10.70;22.50;;;;;;4975281;28;20520;-59
2023/12/26 04:52:59;;;;;;;5.93;5.53;;;10.80;22.10;;;;;;4975763;28;20511;-58
2023/12/26 04:55:25;;;;;;;6.27;5.90;;;10.70;22.10;;;;;;4975928;28;20913;-58
2023/12/26 04:57:51;;;;;;;6.40;5.97;;;10.70;22.20;;;;;;4975192;28;20189;-58
2023/12/26 05:00:16;;;;;;;6.33;5.80;;;10.60;22.20;;;;;;4973166;28;20421;-58
2023/12/26 05:02:42;;;;;;;6.87;6.27;;;10.60;22.30;;;;;;4975602;28;20585;-58
2023/12/26 05:05:08;;;;;;;8.03;6.20;;;10.70;22.60;;;;;;4974873;28;20225;-59
2023/12/26 05:07:33;;;;;;;6.13;5.73;;;10.60;22.30;;;;;;4981520;28;20182;-58
2023/12/26 05:09:59;;;;;;;6.40;5.97;;;10.60;22.70;;;;;;4975366;28;20550;-58
2023/12/26 05:12:26;;;;;;;6.47;5.97;;;10.50;22.80;;;;;;4974041;28;20546;-58
2023/12/26 05:14:52;;;;;;;6.30;5.90;;;10.60;22.60;;;;;;4969283;28;20185;-58
2023/12/26 05:17:18;;;;;;;6.60;6.13;;;10.50;22.70;;;;;;4975237;28;20417;-58
2023/12/26 05:19:44;;;;;;;6.50;6.10;;;10.40;22.90;;;;;;4974367;28;20265;-58
2023/12/26 05:22:10;;;;;;;6.10;5.73;;;10.40;22.80;;;;;;4977469;28;20504;-58
2023/12/26 05:24:36;;;;;;;6.17;5.87;;;10.50;22.90;;;;;;4975382;28;20757;-58
2023/12/26 05:27:01;;;;;;;6.67;6.20;;;10.40;22.80;;;;;;4980729;28;20503;-59
2023/12/26 05:29:28;;;;;;;6.63;6.20;;;10.40;22.80;;;;;;4974988;28;20174;-59
2023/12/26 05:31:53;;;;;;;6.40;5.97;;;10.30;22.90;;;;;;4974830;28;20216;-59
2023/12/26 05:34:20;;;;;;;6.90;6.40;;;10.40;23.30;;;;;;4984976;28;20798;-59
2023/12/26 05:36:45;;;;;;;7.20;6.60;;;10.40;23.00;;;;;;4974817;28;20174;-59
2023/12/26 05:39:11;;;;;;;5.97;5.60;;;10.50;23.30;;;;;;4974068;28;20425;-59
2023/12/26 05:41:40;;;;;;;6.33;5.93;;;10.50;22.70;;;;;;4980704;28;20181;-59
2023/12/26 05:44:05;;;;;;;6.07;5.73;;;10.60;22.60;;;;;;4970559;28;20214;-59
2023/12/26 05:46:31;;;;;;;6.80;6.30;;;10.60;22.60;;;;;;4979848;28;20417;-59
2023/12/26 05:48:58;;;;;;;7.17;6.50;;;10.50;22.60;;;;;;4974064;28;20537;-59
2023/12/26 05:51:25;;;;;;;6.87;6.43;;;10.50;22.60;;;;;;4974752;28;20249;-59
2023/12/26 05:53:50;;;;;;;7.83;7.30;;;10.40;23.10;;;;;;4975071;28;20421;-59
2023/12/26 05:56:16;;;;;;;6.63;6.30;;;10.30;23.00;;;;;;4974232;28;20732;-59
2023/12/26 05:58:41;;;;;;;7.03;6.67;;;10.40;23.40;;;;;;4974634;28;20208;-60
2023/12/26 06:01:11;;;;;;;6.50;6.20;;;10.40;22.90;;;;;;4992136;28;20181;-60
2023/12/26 06:03:38;;;;;;;7.60;7.07;;;10.30;23.00;;;;;;4968476;28;20737;-61
2023/12/26 06:06:08;;;;;;;5.77;5.47;;;10.40;23.40;;;;;;4975013;28;20421;-58
2023/12/26 06:08:33;;;;;;;6.90;6.40;;;10.40;22.80;;;;;;4975252;28;20832;-60
2023/12/26 06:10:59;;;;;;;7.20;6.50;;;10.30;23.10;;;;;;4973804;28;20421;-60
2023/12/26 06:13:25;;;;;;;6.30;5.80;;;10.30;23.40;;;;;;4984204;28;20220;-60
2023/12/26 06:15:51;;;;;;;6.47;6.00;;;10.30;23.40;;;;;;4982469;28;20209;-61
2023/12/26 06:18:17;;;;;;;6.50;6.10;;;10.30;23.40;;;;;;4974095;28;20417;-61
2023/12/26 06:20:42;;;;;;;6.47;6.00;;;10.30;23.40;;;;;;4974293;28;20182;-61
2023/12/26 06:23:08;;;;;;;7.10;6.60;;;10.30;23.40;;;;;;4973816;28;20615;-60
2023/12/26 06:25:33;;;;;;;6.97;6.50;;;10.40;22.90;;;;;;4974107;28;20273;-60
2023/12/26 06:27:59;;;;;;;6.73;6.33;;;10.50;22.50;;;;;;4974452;28;20174;-61
2023/12/26 06:30:24;;;;;;;6.90;6.50;;;10.60;22.40;;;;;;4973070;28;20254;-61
2023/12/26 06:32:51;;;;;;;6.53;6.13;;;10.60;22.40;;;;;;4971937;28;20186;-59
2023/12/26 06:35:16;;;;;;;6.37;5.97;;;10.50;22.70;;;;;;4974327;28;20185;-58
2023/12/26 06:37:42;;;;;;;6.40;6.00;;;10.50;22.50;;;;;;4974092;28;20425;-57
2023/12/26 06:40:08;;;;;;;7.03;6.53;;;10.60;22.40;;;;;;4973291;28;20193;-60
2023/12/26 06:42:34;;;;;;;8.23;6.80;;;10.70;22.50;;;;;;4974166;28;20182;-61
2023/12/26 06:44:59;;;;;;;6.97;6.57;;;10.80;21.90;;;;;;4974092;28;20413;-60
2023/12/26 06:47:25;;;;;;;6.23;5.93;;;11.00;21.70;;;;;;4974076;28;20178;-61
2023/12/26 06:49:53;;;;;;;6.57;5.77;;;11.10;21.80;;;;;;4973591;28;20177;-61
2023/12/26 06:52:19;;;;;;;6.80;6.20;;;10.90;21.50;;;;;;4974252;28;20220;-61
2023/12/26 06:54:45;;;;;;;7.53;6.93;;;10.80;22.00;;;;;;4974064;28;20439;-59
2023/12/26 06:57:15;;;;;;;6.27;5.87;;;10.80;22.10;;;;;;4974150;28;20417;-58
2023/12/26 06:59:48;;;;;;;7.77;6.50;;;10.70;22.00;;;;;;4974074;28;20264;-60
2023/12/26 07:02:14;;;;;;;6.43;6.00;;;10.60;22.30;;;;;;4974250;28;20444;-60
2023/12/26 07:04:42;;;;;;;6.27;5.80;;;10.40;22.70;;;;;;4973846;28;20457;-60
2023/12/26 07:07:07;;;;;;;7.33;6.67;;;10.40;23.00;;;;;;4974199;28;20412;-60
2023/12/26 07:09:33;;;;;;;6.17;5.87;;;10.40;23.10;;;;;;4974018;28;20926;-60
2023/12/26 07:11:58;;;;;;;8.70;6.80;;;10.40;23.30;;;;;;4973780;28;20237;-60
2023/12/26 07:14:24;;;;;;;5.87;5.57;;;10.30;23.40;;;;;;4974416;28;20769;-60
2023/12/26 07:16:50;;;;;;;6.77;6.30;;;10.30;23.40;;;;;;4974128;28;20569;-61
2023/12/26 07:19:15;;;;;;;6.30;5.90;;;10.30;23.40;;;;;;4973487;28;20178;-61
2023/12/26 07:21:41;;;;;;;6.40;6.00;;;10.40;23.20;;;;;;4974069;28;20174;-61
2023/12/26 07:24:07;;;;;;;7.30;6.60;;;10.50;23.50;;;;;;4974425;28;20244;-61
2023/12/26 07:26:33;;;;;;;6.57;6.10;;;10.50;23.50;;;;;;4973444;28;20202;-62
2023/12/26 07:28:58;;;;;;;6.50;6.00;;;10.50;23.50;;;;;;4973859;28;20184;-62
2023/12/26 07:31:25;;;;;;;6.00;5.70;;;10.70;23.50;;;;;;4973898;28;20483;-61
2023/12/26 07:33:51;;;;;;;6.73;6.33;;;10.80;22.60;;;;;;4973436;28;20243;-61
2023/12/26 07:36:17;;;;;;;7.67;6.83;;;10.90;22.80;;;;;;4975765;28;20812;-61
2023/12/26 07:38:43;;;;;;;8.40;7.23;;;10.80;22.60;;;;;;4977120;28;20181;-60
2023/12/26 07:41:09;;;;;;;6.60;6.20;;;10.80;22.80;;;;;;4977229;28;20420;-61
2023/12/26 07:43:35;;;;;;;6.07;5.73;;;10.80;22.30;;;;;;4995432;28;20467;-61
2023/12/26 07:46:00;;;;;;;6.70;6.40;;;10.70;22.30;;;;;;4973722;28;20182;-62
2023/12/26 07:48:26;;;;;;;6.73;6.30;;;10.60;22.60;;;;;;4976730;28;20540;-61
2023/12/26 07:50:52;;;;;;;6.77;6.33;;;10.60;22.90;;;;;;4983882;28;20240;-61
2023/12/26 07:53:17;;;;;;;6.10;5.90;;;10.70;22.90;;;;;;4995932;28;20416;-62
2023/12/26 07:55:43;;;;;;;6.47;6.00;;;10.90;22.30;;;;;;4994680;28;20671;-62
2023/12/26 07:58:09;;;;;;;7.00;6.40;;;11.10;21.90;;;;;;4995457;28;20208;-63
2023/12/26 08:00:35;;;;;;;7.40;6.33;;;11.20;21.50;;;;;;4995708;28;20191;-59
2023/12/26 08:03:00;;;;;;;6.83;6.20;;;11.20;21.40;;;;;;4995776;28;20669;-60
2023/12/26 08:05:26;;;;;;;6.27;5.90;;;11.30;21.10;;;;;;4996777;28;20412;-60
2023/12/26 08:07:52;;;;;;;6.70;5.97;;;11.40;20.90;;;;;;4996519;28;20236;-60
2023/12/26 08:10:18;;;;;;;6.50;6.07;;;11.60;20.80;;;;;;4986249;28;20917;-60
2023/12/26 08:12:44;;;;;;;7.30;6.90;;;11.60;20.20;;;;;;4976580;28;20240;-60
2023/12/26 08:15:10;;;;;;;6.80;6.40;;;11.70;20.40;;;;;;4977267;28;20174;-60
2023/12/26 08:17:36;;;;;;;6.47;5.97;;;11.70;20.00;;;;;;4976728;28;20420;-59
2023/12/26 08:20:03;;;;;;;8.10;6.53;;;11.80;20.30;;;;;;4976648;28;20828;-60
2023/12/26 08:22:29;;;;;;;6.20;5.70;;;11.80;19.70;;;;;;4976675;28;20998;-60
2023/12/26 08:24:55;;;;;;;6.90;6.47;;;11.70;20.30;;;;;;4965102;28;20465;-60
2023/12/26 08:27:22;;;;;;;7.67;6.67;;;11.70;20.60;;;;;;4967371;28;20413;-60
2023/12/26 08:29:48;;;;;;;6.73;6.23;;;11.60;20.20;;;;;;4965835;28;20642;-61
2023/12/26 08:32:14;;;;;;;6.73;6.23;;;11.70;20.30;;;;;;4965414;28;20480;-59
2023/12/26 08:34:44;;;;;;;6.63;6.23;;;11.50;20.00;;;;;;4965193;28;20918;-59
2023/12/26 08:37:11;;;;;;;6.63;6.23;;;11.40;20.40;;;;;;4966640;28;20232;-59
2023/12/26 08:39:36;;;;;;;6.90;6.50;;;11.40;20.70;;;;;;4966177;28;20430;-59
2023/12/26 08:42:02;;;;;;;6.47;5.97;;;11.40;20.50;;;;;;4973572;28;20425;-60
2023/12/26 08:44:28;;;;;;;6.23;5.80;;;11.50;20.30;;;;;;4976049;28;20306;-60
2023/12/26 08:46:53;;;;;;;6.40;6.00;;;11.40;20.50;;;;;;4974760;28;20321;-60
2023/12/26 08:49:19;;;;;;;5.93;5.63;;;11.20;20.80;;;;;;4975006;28;20197;-59
2023/12/26 08:51:45;;;;;;;6.67;6.13;;;11.10;21.30;;;;;;4976334;28;20526;-59
2023/12/26 08:54:11;;;;;;;6.73;6.27;;;11.20;21.40;;;;;;4976120;28;20181;-59
2023/12/26 08:56:40;;;;;;;6.40;5.90;;;11.30;20.90;;;;;;4976454;28;20264;-63
2023/12/26 08:59:06;;;;;;;6.73;6.30;;;11.40;20.70;;;;;;4975998;28;20422;-59
2023/12/26 09:01:31;;;;;;;7.20;6.70;;;11.50;20.30;;;;;;4975911;28;20417;-61
2023/12/26 09:03:57;;;;;;;8.00;6.67;;;11.50;20.60;;;;;;4976374;28;20248;-59
2023/12/26 09:06:23;;;;;;;7.67;7.10;;;11.50;20.70;;;;;;4975923;28;20627;-60
2023/12/26 09:08:48;;;;;;;7.00;6.40;;;11.50;20.30;;;;;;4974735;28;20216;-58
2023/12/26 09:11:14;;;;;;;7.17;6.57;;;11.40;20.60;;;;;;4975868;28;20635;-59
2023/12/26 09:13:39;;;;;;;6.30;5.80;;;11.40;20.60;;;;;;4975625;28;20202;-59
2023/12/26 09:16:05;;;;;;;6.57;6.13;;;11.40;21.00;;;;;;4974139;28;20273;-59
2023/12/26 09:18:31;;;;;;;7.60;7.07;;;11.40;20.80;;;;;;4975083;28;20182;-59
2023/12/26 09:20:57;;;;;;;6.67;6.10;;;11.40;21.00;;;;;;4974181;28;20434;-59
2023/12/26 09:23:22;;;;;;;6.40;6.10;;;11.40;21.50;;;;;;4974226;28;20208;-59
2023/12/26 09:25:48;;;;;;;7.20;6.80;;;11.30;21.40;;;;;;4967107;28;20177;-59
2023/12/26 09:28:13;;;;;;;7.07;6.37;;;11.30;21.50;;;;;;4965250;28;20686;-59
2023/12/26 09:30:39;;;;;;;7.50;7.10;;;11.40;21.40;;;;;;4963995;28;20853;-59
2023/12/26 09:33:05;;;;;;;6.50;6.00;;;11.30;21.40;;;;;;4966018;28;20234;-59
2023/12/26 09:35:31;;;;;;;6.40;5.87;;;11.30;21.80;;;;;;4964284;28;20261;-59
2023/12/26 09:37:56;;;;;;;6.87;6.00;;;11.30;21.60;;;;;;4964474;28;20413;-59
2023/12/26 09:40:22;;;;;;;6.70;6.20;;;11.30;21.50;;;;;;4965249;28;20174;-59
2023/12/26 09:42:47;;;;;;;6.87;6.37;;;11.20;22.10;;;;;;4963852;28;20186;-59
2023/12/26 09:45:13;;;;;;;6.30;6.00;;;11.20;22.10;;;;;;4965207;28;20588;-59
2023/12/26 09:47:42;;;;;;;6.10;5.50;;;10.90;22.60;;;;;;4973852;28;20170;-59
2023/12/26 09:50:09;;;;;;;6.83;6.30;;;10.90;22.80;;;;;;4973573;28;20424;-59
2023/12/26 09:52:35;;;;;;;6.10;5.70;;;11.00;22.90;;;;;;4963841;28;20759;-59
2023/12/26 09:55:02;;;;;;;7.00;6.70;;;10.90;23.00;;;;;;4966319;28;20422;-60
2023/12/26 09:57:28;;;;;;;6.77;6.23;;;10.80;23.20;;;;;;4975586;28;20420;-61
2023/12/26 09:59:55;;;;;;;6.60;6.10;;;10.80;23.50;;;;;;4973202;28;20493;-60
2023/12/26 10:02:21;;;;;;;6.67;6.10;;;10.90;23.30;;;;;;4974996;28;20504;-59
2023/12/26 10:04:47;;;;;;;5.50;5.00;;;10.90;23.20;;;;;;4975080;28;20540;-59
2023/12/26 10:07:18;;;;;;;6.03;5.63;;;11.10;23.10;;;;;;4975467;28;20206;-59
2023/12/26 10:09:44;;;;;;;5.83;5.33;;;11.10;23.10;;;;;;4975083;28;20413;-59
2023/12/26 10:12:10;;;;;;;6.27;5.77;;;11.20;22.40;;;;;;4975345;28;20792;-58
2023/12/26 10:14:36;;;;;;;5.67;5.27;;;11.10;22.60;;;;;;4975501;28;20424;-58
2023/12/26 10:17:03;;;;;;;6.20;5.90;;;11.20;22.60;;;;;;4974303;28;20217;-58
2023/12/26 10:19:29;;;;;;;5.37;5.17;;;11.20;22.60;;;;;;4966094;28;20492;-59
2023/12/26 10:21:55;;;;;;;5.60;5.30;;;11.30;22.40;;;;;;4965133;28;20789;-59
2023/12/26 10:24:21;;;;;;;5.53;5.23;;;11.30;22.40;;;;;;4963068;28;20533;-59
2023/12/26 10:26:47;;;;;;;5.53;5.30;;;11.30;22.50;;;;;;4964095;28;20198;-58
2023/12/26 10:29:14;;;;;;;5.00;4.80;;;11.30;22.70;;;;;;4962250;28;20418;-58
2023/12/26 10:31:40;;;;;;;5.93;5.63;;;11.20;22.30;;;;;;4964551;28;20433;-58
2023/12/26 10:34:16;;;;;;;5.77;5.27;;;11.20;22.90;;;;;;4964346;28;20476;-59
2023/12/26 10:36:47;;;;;;;6.07;5.87;;;11.20;22.90;;;;;;4971504;28;20428;-58
2023/12/26 10:39:13;;;;;;;6.03;5.73;;;11.00;23.20;;;;;;4972879;28;20497;-58
2023/12/26 10:41:43;;;;;;;5.97;5.67;;;10.90;23.80;;;;;;4970554;28;20413;-60
2023/12/26 10:44:09;;;;;;;5.63;5.33;;;10.90;23.90;;;;;;4955175;28;20285;-60
2023/12/26 10:46:36;;;;;;;6.20;5.90;;;10.80;23.70;;;;;;4972194;28;20502;-60
2023/12/26 10:49:05;;;;;;;5.60;5.27;;;10.90;23.80;;;;;;4954832;28;20777;-58
2023/12/26 10:51:32;;;;;;;6.33;5.93;;;11.00;23.90;;;;;;4955407;28;20965;-60
2023/12/26 10:54:25;;;;;;;5.97;5.63;;;11.00;23.70;;;;;;4954861;28;20460;-60
2023/12/26 10:56:52;;;;;;;6.17;5.63;;;11.10;23.60;;;;;;4948930;28;20434;-58
2023/12/26 10:59:19;;;;;;;5.73;5.40;;;11.00;23.90;;;;;;4954039;28;20426;-58
2023/12/26 11:01:46;;;;;;;5.60;5.30;;;11.00;23.90;;;;;;4955277;28;20803;-59
2023/12/26 11:04:13;;;;;;;6.37;5.97;;;11.10;23.90;;;;;;4955597;28;20465;-59
2023/12/26 11:06:40;;;;;;;5.83;5.63;;;11.10;23.90;;;;;;4954689;28;20406;-59
2023/12/26 11:09:07;;;;;;;6.40;6.00;;;11.00;23.90;;;;;;4954965;28;20414;-59
2023/12/26 11:11:34;;;;;;;5.30;5.10;;;11.10;23.90;;;;;;4957386;28;20413;-61
2023/12/26 11:14:00;;;;;;;6.30;6.00;;;11.00;23.90;;;;;;4961086;28;20432;-61
2023/12/26 11:16:26;;;;;;;6.63;6.33;;;11.10;23.90;;;;;;4973559;28;21061;-61
2023/12/26 11:18:51;;;;;;;6.83;6.20;;;11.10;24.50;;;;;;4977563;28;20428;-61
2023/12/26 11:21:17;;;;;;;5.80;5.60;;;11.10;23.90;;;;;;4977471;28;20845;-61
2023/12/26 11:23:45;;;;;;;6.20;6.00;;;11.20;24.00;;;;;;4976884;28;20233;-61
2023/12/26 11:26:12;;;;;;;5.70;5.40;;;11.20;24.00;;;;;;4977714;28;20517;-59
2023/12/26 11:28:40;;;;;;;6.93;6.43;;;11.40;24.00;;;;;;4977396;28;20757;-58
2023/12/26 11:31:05;;;;;;;6.10;5.80;;;11.30;23.80;;;;;;4977235;28;20432;-58
2023/12/26 11:33:31;;;;;;;5.97;5.77;;;11.30;24.10;;;;;;4977798;28;20427;-58
2023/12/26 11:35:57;;;;;;;5.93;5.73;;;11.30;24.10;;;;;;4977384;28;20646;-58
2023/12/26 11:38:23;;;;;;;6.00;5.80;;;11.30;24.10;;;;;;4977294;28;20182;-58
2023/12/26 11:40:49;;;;;;;5.70;5.40;;;11.40;24.10;;;;;;4977068;28;20681;-58
2023/12/26 11:43:16;;;;;;;6.20;6.00;;;11.30;24.10;;;;;;4977522;28;20460;-58
2023/12/26 11:45:41;;;;;;;6.20;5.67;;;11.40;24.10;;;;;;4976956;28;20181;-58
2023/12/26 11:48:07;;;;;;;5.83;5.50;;;11.30;24.10;;;;;;4977492;28;20417;-58
2023/12/26 11:50:33;;;;;;;5.53;5.33;;;11.20;24.00;;;;;;4977152;28;20201;-58
2023/12/26 11:52:59;;;;;;;5.27;4.93;;;11.20;24.50;;;;;;4976849;28;20178;-58
2023/12/26 11:55:24;;;;;;;5.43;5.20;;;11.30;24.20;;;;;;4977631;28;20206;-59
2023/12/26 11:57:50;;;;;;;5.50;5.30;;;11.30;24.10;;;;;;4977074;28;20174;-58
2023/12/26 12:00:16;;;;;;;6.30;5.83;;;11.30;24.10;;;;;;4976481;28;20186;-58
2023/12/26 12:02:41;;;;;;;6.40;5.80;;;11.30;24.10;;;;;;4977143;28;20182;-58
2023/12/26 12:05:07;;;;;;;4.50;4.40;;;11.30;24.10;;;;;;4977172;28;20518;-58
2023/12/26 12:07:33;;;;;;;5.60;5.30;;;11.30;24.10;;;;;;4976750;28;20193;-58
2023/12/26 12:10:10;;;;;;;5.60;5.40;;;11.30;24.10;;;;;;4976659;28;20369;-59
2023/12/26 12:12:36;;;;;;;6.50;6.20;;;11.30;24.10;;;;;;4977229;28;20182;-58
2023/12/26 12:15:02;;;;;;;5.90;5.60;;;11.40;24.70;;;;;;4976525;28;20456;-58
2023/12/26 12:17:28;;;;;;;5.53;5.23;;;11.40;24.10;;;;;;4977009;28;20190;-58
2023/12/26 12:19:54;;;;;;;5.87;5.63;;;11.40;24.10;;;;;;4976439;28;20427;-58
2023/12/26 12:22:26;;;;;;;5.87;5.67;;;11.50;24.20;;;;;;4975959;28;20189;-59
2023/12/26 12:24:51;;;;;;;6.10;5.90;;;11.60;23.70;;;;;;4976887;28;20951;-58
2023/12/26 12:27:17;;;;;;;6.17;5.80;;;11.60;24.40;;;;;;4976713;28;20431;-58
2023/12/26 12:30:16;;;;;;;5.10;4.90;;;11.70;24.10;;;;;;4975937;28;20482;-59
2023/12/26 12:32:42;;;;;;;5.80;5.50;;;11.70;23.80;;;;;;4969320;28;20600;-58
2023/12/26 12:35:15;;;;;;;5.90;5.63;;;11.70;24.00;;;;;;4976591;28;20448;-59
2023/12/26 12:37:41;;;;;;;5.10;4.90;;;11.60;23.90;;;;;;4976467;28;20201;-59
2023/12/26 12:40:07;;;;;;;5.53;5.30;;;11.50;24.20;;;;;;4993456;28;20439;-59
2023/12/26 12:42:39;;;;;;;5.20;4.90;;;11.50;24.20;;;;;;4976539;28;20413;-58